createdAt,value
2018-04-30T00:00:01.744Z,21.64
2018-04-30T00:02:27.688Z,21.66
2018-04-30T00:04:53.692Z,21.64
2018-04-30T00:07:19.624Z,21.64
2018-04-30T00:09:45.560Z,21.60
2018-04-30T00:12:11.516Z,21.62
2018-04-30T00:14:37.525Z,21.60
2018-04-30T00:17:03.471Z,21.60
2018-04-30T00:19:29.435Z,21.60
2018-04-30T00:21:55.408Z,21.61
2018-04-30T00:24:21.349Z,21.59
2018-04-30T00:26:47.296Z,21.64
2018-04-30T00:29:13.329Z,21.59
2018-04-30T00:31:39.265Z,21.57
2018-04-30T00:34:05.208Z,21.62
2018-04-30T00:36:31.221Z,21.57
2018-04-30T00:38:57.164Z,21.56
2018-04-30T00:41:23.109Z,21.61
2018-04-30T00:43:49.063Z,21.59
2018-04-30T00:46:14.996Z,21.53
2018-04-30T00:48:40.944Z,21.56
2018-04-30T00:51:06.884Z,21.60
2018-04-30T00:53:32.868Z,21.58
2018-04-30T00:55:58.877Z,21.58
2018-04-30T00:58:24.845Z,21.56
2018-04-30T01:00:50.789Z,21.61
2018-04-30T01:03:16.725Z,21.59
2018-04-30T01:05:42.659Z,21.65
2018-04-30T01:08:08.605Z,21.63
2018-04-30T01:10:34.536Z,21.58
2018-04-30T01:13:00.476Z,21.58
2018-04-30T01:15:26.425Z,21.59
2018-04-30T01:17:52.367Z,21.57
2018-04-30T01:20:18.368Z,21.56
2018-04-30T01:22:44.342Z,21.55
2018-04-30T01:25:10.278Z,21.55
2018-04-30T01:27:36.216Z,21.55
2018-04-30T01:30:02.324Z,21.59
2018-04-30T01:32:28.260Z,21.58
2018-04-30T01:34:54.212Z,21.59
2018-04-30T01:37:20.196Z,21.59
2018-04-30T01:39:46.156Z,21.60
2018-04-30T01:42:12.096Z,21.56
2018-04-30T01:44:38.148Z,21.57
2018-04-30T01:47:04.088Z,21.61
2018-04-30T01:49:30.033Z,21.60
2018-04-30T01:51:56.041Z,21.58
2018-04-30T01:54:22.000Z,21.57
2018-04-30T01:56:47.943Z,21.59
2018-04-30T01:59:13.916Z,21.59
2018-04-30T02:01:39.883Z,21.59
2018-04-30T02:04:05.845Z,21.56
2018-04-30T02:06:31.892Z,21.65
2018-04-30T02:08:57.848Z,21.62
2018-04-30T02:11:23.805Z,21.57
2018-04-30T02:13:49.736Z,21.54
2018-04-30T02:16:15.696Z,21.50
2018-04-30T02:18:41.652Z,21.56
2018-04-30T02:21:07.632Z,21.56
2018-04-30T02:23:33.584Z,21.56
2018-04-30T02:25:59.544Z,21.59
2018-04-30T02:28:25.529Z,21.67
2018-04-30T02:30:51.475Z,21.56
2018-04-30T02:33:17.427Z,21.55
2018-04-30T02:35:43.380Z,21.54
2018-04-30T02:38:09.347Z,21.57
2018-04-30T02:40:35.280Z,21.57
2018-04-30T02:43:01.232Z,21.61
2018-04-30T02:45:27.200Z,21.58
2018-04-30T02:47:53.200Z,21.55
2018-04-30T02:50:19.172Z,21.61
2018-04-30T02:52:45.128Z,21.62
2018-04-30T02:55:11.060Z,21.56
2018-04-30T02:57:37.001Z,21.53
2018-04-30T03:00:02.967Z,21.55
2018-04-30T03:02:28.912Z,21.62
2018-04-30T03:04:54.860Z,21.57
2018-04-30T03:07:20.811Z,21.55
2018-04-30T03:09:46.858Z,21.51
2018-04-30T03:12:12.776Z,21.58
2018-04-30T03:14:38.716Z,21.56
2018-04-30T03:17:04.662Z,21.55
2018-04-30T03:19:30.622Z,21.58
2018-04-30T03:21:56.577Z,21.56
2018-04-30T03:24:22.517Z,21.57
2018-04-30T03:26:48.460Z,21.58
2018-04-30T03:29:14.393Z,21.54
2018-04-30T03:31:40.348Z,21.57
2018-04-30T03:34:06.285Z,21.60
2018-04-30T03:36:32.221Z,21.62
2018-04-30T03:38:58.158Z,21.62
2018-04-30T03:41:24.112Z,21.54
2018-04-30T03:43:50.053Z,21.55
2018-04-30T03:46:16.024Z,21.55
2018-04-30T03:48:41.963Z,21.56
2018-04-30T03:51:07.913Z,21.59
2018-04-30T03:53:33.857Z,21.56
2018-04-30T03:55:59.791Z,21.56
2018-04-30T03:58:25.756Z,21.56
2018-04-30T04:00:51.740Z,21.59
2018-04-30T04:03:17.709Z,21.60
2018-04-30T04:05:43.661Z,21.59
2018-04-30T04:08:09.604Z,21.59
2018-04-30T04:10:35.549Z,21.57
2018-04-30T04:13:01.619Z,21.59
2018-04-30T04:15:27.560Z,21.57
2018-04-30T04:17:53.498Z,21.57
2018-04-30T04:20:19.474Z,21.61
2018-04-30T04:22:45.448Z,21.64
2018-04-30T04:25:11.459Z,21.52
2018-04-30T04:27:37.405Z,21.56
2018-04-30T04:30:03.363Z,21.52
2018-04-30T04:32:29.308Z,21.51
2018-04-30T04:34:55.246Z,21.51
2018-04-30T04:37:21.199Z,21.55
2018-04-30T04:39:47.133Z,21.55
2018-04-30T04:42:13.077Z,21.51
2018-04-30T04:44:39.021Z,21.56
2018-04-30T04:47:04.989Z,21.61
2018-04-30T04:49:30.939Z,21.64
2018-04-30T04:51:56.875Z,21.59
2018-04-30T04:54:22.810Z,21.61
2018-04-30T04:56:48.747Z,21.57
2018-04-30T04:59:14.692Z,21.55
2018-04-30T05:01:40.633Z,21.56
2018-04-30T05:04:06.568Z,21.58
2018-04-30T05:06:32.500Z,21.50
2018-04-30T05:08:58.440Z,21.57
2018-04-30T05:11:24.380Z,21.58
2018-04-30T05:13:50.355Z,21.55
2018-04-30T05:16:16.323Z,21.53
2018-04-30T05:18:42.274Z,21.56
2018-04-30T05:21:08.243Z,21.59
2018-04-30T05:23:34.191Z,21.66
2018-04-30T05:26:00.159Z,21.60
2018-04-30T05:28:26.115Z,21.61
2018-04-30T05:30:52.052Z,21.60
2018-04-30T05:33:18.025Z,21.56
2018-04-30T05:35:43.982Z,21.59
2018-04-30T05:38:09.924Z,21.66
2018-04-30T05:40:35.911Z,21.76
2018-04-30T05:43:01.860Z,21.60
2018-04-30T05:45:27.812Z,21.57
2018-04-30T05:47:53.753Z,21.60
2018-04-30T05:50:19.743Z,21.57
2018-04-30T05:52:45.708Z,21.55
2018-04-30T05:55:11.810Z,21.61
2018-04-30T05:57:37.622Z,21.56
2018-04-30T06:00:03.564Z,21.69
2018-04-30T06:02:29.508Z,21.65
2018-04-30T06:04:55.480Z,21.55
2018-04-30T06:07:21.422Z,21.60
2018-04-30T06:09:47.435Z,21.51
2018-04-30T06:12:13.442Z,21.49
2018-04-30T06:14:39.559Z,21.50
2018-04-30T06:17:05.503Z,21.58
2018-04-30T06:19:31.479Z,21.59
2018-04-30T06:21:57.636Z,21.57
2018-04-30T06:24:23.619Z,21.69
2018-04-30T06:26:49.685Z,21.56
2018-04-30T06:29:15.519Z,21.53
2018-04-30T06:31:41.469Z,21.61
2018-04-30T06:34:07.427Z,21.52
2018-04-30T06:36:33.387Z,21.51
2018-04-30T06:38:59.324Z,21.54
2018-04-30T06:41:25.268Z,21.51
2018-04-30T06:43:51.209Z,21.48
2018-04-30T06:46:17.155Z,21.51
2018-04-30T06:48:43.187Z,21.51
2018-04-30T06:51:09.164Z,21.50
2018-04-30T06:53:35.252Z,21.49
2018-04-30T06:56:01.090Z,21.49
2018-04-30T06:58:27.039Z,21.47
2018-04-30T07:00:53.000Z,21.51
2018-04-30T07:03:19.053Z,21.80
2018-04-30T07:05:44.987Z,21.72
2018-04-30T07:08:10.949Z,21.65
2018-04-30T07:10:36.888Z,21.77
2018-04-30T07:13:02.863Z,21.55
2018-04-30T07:15:28.806Z,21.51
2018-04-30T07:17:54.741Z,21.61
2018-04-30T07:20:20.694Z,21.57
2018-04-30T07:22:46.628Z,21.53
2018-04-30T07:25:12.613Z,21.67
2018-04-30T07:27:38.633Z,21.66
2018-04-30T07:30:04.502Z,21.68
2018-04-30T07:32:30.483Z,21.60
2018-04-30T07:34:56.445Z,21.53
2018-04-30T07:37:22.405Z,21.50
2018-04-30T07:39:48.363Z,21.62
2018-04-30T07:42:14.324Z,21.48
2018-04-30T07:44:40.264Z,21.49
2018-04-30T07:47:06.236Z,21.52
2018-04-30T07:49:32.176Z,21.51
2018-04-30T07:51:58.140Z,21.54
2018-04-30T07:54:24.096Z,21.51
2018-04-30T07:56:50.031Z,21.76
2018-04-30T07:59:16.091Z,21.60
2018-04-30T08:01:42.034Z,21.67
2018-04-30T08:04:08.018Z,21.55
2018-04-30T08:06:33.948Z,21.60
2018-04-30T08:08:59.912Z,21.73
2018-04-30T08:11:25.899Z,21.69
2018-04-30T08:13:51.923Z,21.79
2018-04-30T08:16:17.865Z,21.74
2018-04-30T08:18:43.804Z,21.73
2018-04-30T08:21:09.890Z,21.81
2018-04-30T08:23:35.926Z,21.80
2018-04-30T08:26:01.877Z,21.81
2018-04-30T08:28:27.842Z,21.75
2018-04-30T08:30:53.924Z,21.89
2018-04-30T08:33:19.905Z,21.79
2018-04-30T08:35:45.911Z,21.76
2018-04-30T08:38:11.858Z,21.75
2018-04-30T08:40:37.815Z,21.78
2018-04-30T08:43:03.773Z,21.67
2018-04-30T08:45:29.711Z,21.75
2018-04-30T08:47:55.739Z,21.70
2018-04-30T08:50:21.676Z,21.74
2018-04-30T08:52:47.619Z,21.77
2018-04-30T08:55:13.576Z,21.84
2018-04-30T08:57:39.541Z,21.78
2018-04-30T09:00:05.472Z,21.80
2018-04-30T09:02:31.447Z,21.79
2018-04-30T09:04:57.427Z,21.83
2018-04-30T09:07:23.468Z,21.80
2018-04-30T09:09:49.439Z,21.80
2018-04-30T09:12:15.381Z,21.74
2018-04-30T09:14:41.363Z,21.83
2018-04-30T09:17:07.291Z,21.69
2018-04-30T09:19:33.235Z,21.70
2018-04-30T09:21:59.199Z,21.65
2018-04-30T09:24:25.136Z,21.65
2018-04-30T09:26:51.089Z,21.79
2018-04-30T09:29:17.031Z,21.71
2018-04-30T09:31:42.996Z,21.69
2018-04-30T09:34:08.956Z,21.65
2018-04-30T09:36:34.929Z,21.58
2018-04-30T09:39:00.888Z,21.58
2018-04-30T09:41:26.823Z,21.50
2018-04-30T09:43:52.771Z,21.63
2018-04-30T09:46:18.718Z,21.66
2018-04-30T09:48:44.661Z,21.59
2018-04-30T09:51:10.608Z,21.61
2018-04-30T09:53:36.574Z,21.58
2018-04-30T09:56:02.536Z,21.62
2018-04-30T09:58:28.495Z,21.68
2018-04-30T10:00:54.476Z,21.63
2018-04-30T10:03:20.420Z,21.67
2018-04-30T10:05:46.356Z,21.78
2018-04-30T10:08:12.308Z,21.70
2018-04-30T10:10:38.276Z,21.68
2018-04-30T10:13:04.231Z,21.81
2018-04-30T10:15:30.173Z,21.77
2018-04-30T10:17:56.144Z,21.80
2018-04-30T10:20:22.164Z,21.81
2018-04-30T10:22:48.211Z,21.79
2018-04-30T10:25:14.165Z,21.69
2018-04-30T10:27:40.120Z,21.69
2018-04-30T10:30:06.082Z,21.62
2018-04-30T10:32:32.017Z,21.78
2018-04-30T10:34:58.032Z,21.64
2018-04-30T10:37:24.003Z,21.64
2018-04-30T10:39:49.997Z,21.63
2018-04-30T10:42:15.950Z,21.66
2018-04-30T10:44:41.969Z,21.68
2018-04-30T10:47:07.908Z,21.59
2018-04-30T10:49:33.868Z,21.60
2018-04-30T10:51:59.825Z,21.61
2018-04-30T10:54:25.776Z,21.67
2018-04-30T10:56:51.761Z,21.52
2018-04-30T10:59:17.717Z,21.68
2018-04-30T11:01:43.651Z,21.67
2018-04-30T11:04:09.614Z,21.72
2018-04-30T11:06:35.568Z,21.81
2018-04-30T11:09:01.520Z,21.66
2018-04-30T11:11:27.452Z,21.57
2018-04-30T11:13:53.387Z,21.64
2018-04-30T11:16:19.349Z,21.60
2018-04-30T11:18:45.313Z,21.58
2018-04-30T11:21:11.283Z,21.61
2018-04-30T11:23:37.308Z,21.58
2018-04-30T11:26:03.260Z,21.63
2018-04-30T11:28:29.196Z,21.59
2018-04-30T11:30:55.140Z,21.58
2018-04-30T11:33:21.086Z,21.54
2018-04-30T11:35:47.029Z,21.56
2018-04-30T11:38:12.995Z,21.62
2018-04-30T11:40:38.939Z,21.76
2018-04-30T11:43:04.875Z,21.91
2018-04-30T11:45:30.848Z,21.97
2018-04-30T11:47:56.817Z,22.01
2018-04-30T11:50:22.751Z,21.90
2018-04-30T11:52:48.696Z,21.72
2018-04-30T11:55:14.643Z,21.96
2018-04-30T11:57:40.609Z,22.05
2018-04-30T12:00:06.556Z,22.15
2018-04-30T12:02:32.585Z,22.18
2018-04-30T12:04:58.561Z,21.95
2018-04-30T12:07:24.447Z,22.06
2018-04-30T12:09:50.432Z,22.02
2018-04-30T12:12:16.457Z,21.75
2018-04-30T12:14:42.436Z,21.87
2018-04-30T12:17:08.397Z,22.04
2018-04-30T12:22:20.397Z,21.88
2018-04-30T12:24:46.368Z,21.62
2018-04-30T12:27:12.370Z,21.67
2018-04-30T12:29:38.385Z,21.67
2018-04-30T12:32:04.340Z,21.69
2018-04-30T12:34:30.341Z,21.85
2018-04-30T12:36:56.319Z,21.83
2018-04-30T12:39:22.295Z,21.70
2018-04-30T12:41:48.251Z,21.65
2018-04-30T12:44:14.255Z,21.60
2018-04-30T12:46:40.237Z,21.46
2018-04-30T12:49:06.310Z,21.42
2018-04-30T12:51:32.326Z,21.42
2018-04-30T12:53:58.289Z,21.48
2018-04-30T12:56:24.301Z,21.48
2018-04-30T12:58:50.270Z,21.40
2018-04-30T13:01:16.254Z,21.38
2018-04-30T13:03:42.288Z,21.37
2018-04-30T13:06:08.278Z,21.34
2018-04-30T13:08:34.230Z,21.32
2018-04-30T13:11:00.197Z,21.31
2018-04-30T13:13:26.194Z,21.30
2018-04-30T13:15:52.189Z,21.32
2018-04-30T13:18:18.138Z,21.31
2018-04-30T13:20:44.125Z,21.37
2018-04-30T13:23:10.114Z,21.37
2018-04-30T13:25:36.104Z,21.51
2018-04-30T13:28:02.064Z,21.51
2018-04-30T13:30:28.035Z,21.39
2018-04-30T13:32:53.993Z,21.43
2018-04-30T13:35:19.952Z,21.38
2018-04-30T13:37:45.922Z,21.46
2018-04-30T13:40:12.203Z,21.37
2018-04-30T13:42:38.207Z,21.52
2018-04-30T13:45:04.199Z,21.53
2018-04-30T13:47:30.197Z,21.46
2018-04-30T13:49:56.172Z,21.50
2018-04-30T13:52:22.313Z,21.51
2018-04-30T13:54:48.264Z,21.43
2018-04-30T14:02:18.655Z,21.54
2018-04-30T14:04:44.551Z,21.52
2018-04-30T14:07:10.532Z,21.35
2018-04-30T14:09:36.528Z,21.39
2018-04-30T14:12:02.519Z,21.38
2018-04-30T14:14:28.529Z,21.34
2018-04-30T14:16:54.873Z,21.44
2018-04-30T14:19:20.857Z,21.42
2018-04-30T14:21:46.817Z,21.36
2018-04-30T14:24:12.803Z,21.34
2018-04-30T14:26:38.767Z,21.35
2018-04-30T14:29:04.748Z,21.29
2018-04-30T14:31:30.722Z,21.30
2018-04-30T14:33:56.673Z,21.30
2018-04-30T14:36:22.641Z,21.39
2018-04-30T14:38:48.622Z,21.29
2018-04-30T14:41:14.603Z,21.25
2018-04-30T14:43:40.565Z,21.22
2018-04-30T14:46:06.521Z,21.25
2018-04-30T14:48:32.510Z,21.16
2018-04-30T14:50:59.076Z,21.32
2018-04-30T14:53:25.097Z,21.28
2018-04-30T15:00:58.485Z,21.28
2018-04-30T15:03:24.482Z,21.30
2018-04-30T15:05:50.454Z,21.43
2018-04-30T15:08:17.465Z,21.32
2018-04-30T15:10:43.435Z,21.12
2018-04-30T15:13:09.454Z,21.06
2018-04-30T15:15:35.424Z,21.12
2018-04-30T15:18:01.447Z,21.07
2018-04-30T15:20:27.475Z,21.36
2018-04-30T15:22:53.475Z,21.07
2018-04-30T15:25:19.453Z,21.13
2018-04-30T15:32:49.012Z,21.10
2018-04-30T15:35:15.040Z,21.13
2018-04-30T15:37:41.025Z,21.22
2018-04-30T15:40:07.031Z,21.09
2018-04-30T15:45:08.611Z,21.10
2018-04-30T15:47:34.618Z,21.09
2018-04-30T15:50:00.576Z,21.17
2018-04-30T15:52:26.555Z,21.15
2018-04-30T16:02:30.729Z,21.33
2018-04-30T16:04:56.810Z,21.12
2018-04-30T16:30:04.920Z,21.07
2018-04-30T16:32:30.980Z,21.11
2018-04-30T16:34:57.057Z,21.02
2018-04-30T16:37:23.044Z,21.17
2018-04-30T16:39:49.289Z,21.39
2018-04-30T16:42:15.399Z,21.13
2018-04-30T17:04:57.381Z,21.07
2018-04-30T17:07:23.381Z,21.06
2018-04-30T17:09:49.370Z,21.09
2018-04-30T17:12:15.345Z,21.07
2018-04-30T17:14:41.318Z,21.07
2018-04-30T17:17:07.320Z,21.04
2018-04-30T17:19:33.300Z,21.04
2018-04-30T17:21:59.288Z,20.98
2018-04-30T17:24:25.284Z,21.04
2018-04-30T17:26:51.310Z,21.08
2018-04-30T17:29:17.869Z,21.25
2018-04-30T17:31:43.843Z,21.21
2018-04-30T17:34:09.849Z,21.24
2018-04-30T17:36:35.860Z,21.09
2018-04-30T17:39:01.800Z,21.09
2018-04-30T17:41:27.785Z,21.11
2018-04-30T17:43:53.772Z,21.11
2018-04-30T17:46:19.772Z,21.11
2018-04-30T17:48:45.736Z,21.10
2018-04-30T17:51:11.716Z,21.09
2018-04-30T17:53:37.692Z,21.08
2018-04-30T17:56:03.678Z,21.10
2018-04-30T17:58:29.659Z,21.04
2018-04-30T18:00:55.633Z,21.09
2018-04-30T18:03:21.585Z,21.14
2018-04-30T18:05:47.597Z,21.04
2018-04-30T18:08:13.569Z,21.15
2018-04-30T18:10:39.524Z,21.14
2018-04-30T18:13:05.554Z,21.20
2018-04-30T18:15:31.562Z,21.21
2018-04-30T18:17:57.578Z,21.21
2018-04-30T18:20:23.580Z,21.11
2018-04-30T18:22:49.543Z,21.16
2018-04-30T18:25:19.408Z,21.09
2018-04-30T18:27:45.374Z,21.09
2018-04-30T18:30:11.388Z,21.05
2018-04-30T18:32:37.503Z,21.07
2018-04-30T18:35:03.592Z,21.09
2018-04-30T18:37:29.693Z,21.06
2018-04-30T18:39:55.788Z,21.06
2018-04-30T18:42:22.061Z,21.02
2018-04-30T18:44:48.162Z,21.04
2018-04-30T18:47:14.210Z,21.01
2018-04-30T18:49:40.239Z,20.99
2018-04-30T18:52:06.271Z,21.02
2018-04-30T18:54:32.310Z,21.06
2018-04-30T18:56:58.388Z,21.02
2018-04-30T18:59:24.567Z,21.04
2018-04-30T19:01:50.602Z,21.08
2018-04-30T19:04:16.618Z,21.16
2018-04-30T19:06:42.646Z,21.06
2018-04-30T19:09:08.723Z,21.07
2018-04-30T19:11:34.827Z,21.06
2018-04-30T19:14:00.860Z,21.16
2018-04-30T19:16:28.961Z,21.05
2018-04-30T19:18:55.037Z,21.06
2018-04-30T19:21:22.139Z,20.98
2018-04-30T19:31:22.738Z,20.97
2018-04-30T19:33:48.951Z,20.96
2018-04-30T19:36:14.973Z,20.92
2018-04-30T19:38:41.142Z,20.97
2018-04-30T19:43:38.495Z,20.97
2018-04-30T19:56:09.856Z,21.01
2018-04-30T19:58:35.923Z,21.04
2018-04-30T20:01:02.109Z,21.04
2018-04-30T20:03:28.166Z,21.01
2018-04-30T20:05:54.194Z,21.01
2018-04-30T20:08:23.830Z,21.02
2018-04-30T20:10:49.925Z,20.99
2018-04-30T20:13:15.988Z,21.01
2018-04-30T20:15:42.270Z,21.01
2018-04-30T20:18:08.369Z,20.98
2018-04-30T20:20:34.436Z,20.94
2018-04-30T20:23:00.550Z,21.01
2018-04-30T20:25:26.598Z,21.00
2018-04-30T20:27:52.665Z,20.97
2018-04-30T20:30:18.783Z,20.96
2018-04-30T20:32:44.883Z,20.93
2018-04-30T20:35:11.142Z,21.01
2018-04-30T20:37:37.179Z,20.98
2018-04-30T20:40:03.236Z,21.04
2018-04-30T20:42:29.377Z,20.99
2018-04-30T20:44:55.405Z,21.01
2018-04-30T20:47:21.443Z,20.95
2018-04-30T20:49:47.534Z,20.95
2018-04-30T20:52:13.628Z,20.98
2018-04-30T20:54:39.677Z,20.97
2018-04-30T20:57:05.744Z,21.01
2018-04-30T20:59:31.812Z,20.93
2018-04-30T21:01:57.893Z,20.99
2018-04-30T21:04:23.969Z,21.00
2018-04-30T21:06:50.026Z,20.97
2018-04-30T21:14:21.263Z,20.97
2018-04-30T21:16:47.371Z,20.96
2018-04-30T21:19:13.489Z,20.97
2018-04-30T21:21:39.621Z,20.96
2018-04-30T21:24:05.925Z,20.93
2018-04-30T21:26:31.982Z,20.97
2018-04-30T21:28:58.010Z,21.02
2018-04-30T21:31:24.081Z,20.94
2018-04-30T21:33:50.135Z,20.91
2018-04-30T21:36:16.219Z,20.92
2018-04-30T21:38:42.313Z,20.85
2018-04-30T21:41:08.400Z,20.89
2018-04-30T21:43:34.682Z,20.92
2018-04-30T21:48:33.664Z,20.88
2018-04-30T21:50:59.998Z,20.89
2018-04-30T21:56:01.866Z,20.88
2018-04-30T22:01:00.395Z,20.91
2018-04-30T22:03:26.445Z,20.85
2018-04-30T22:05:52.551Z,20.88
2018-04-30T22:15:52.783Z,20.84
2018-04-30T22:18:18.991Z,20.92
2018-04-30T22:20:44.997Z,20.91
2018-04-30T22:23:11.650Z,20.92
2018-04-30T22:25:37.712Z,20.87
2018-04-30T22:28:03.681Z,20.86
2018-04-30T22:30:29.865Z,20.89
2018-04-30T22:32:55.845Z,20.86
2018-04-30T22:35:22.003Z,20.86
2018-04-30T22:37:48.077Z,20.89
2018-04-30T22:40:14.105Z,20.86
2018-04-30T22:42:40.141Z,20.83
2018-04-30T22:45:06.177Z,20.88
2018-04-30T22:47:32.520Z,20.85
2018-04-30T22:49:58.554Z,20.86
2018-04-30T22:52:24.594Z,20.84
2018-04-30T22:54:50.737Z,20.83
2018-04-30T22:57:16.698Z,20.86
2018-04-30T22:59:42.708Z,20.98
2018-04-30T23:02:08.751Z,20.88
2018-04-30T23:04:34.752Z,21.07
2018-04-30T23:07:00.750Z,20.95
2018-04-30T23:09:26.790Z,20.99
2018-04-30T23:11:53.337Z,20.88
2018-04-30T23:14:19.659Z,20.84
2018-04-30T23:16:45.829Z,20.82
2018-04-30T23:19:11.841Z,20.79
2018-04-30T23:26:41.115Z,20.79
2018-04-30T23:29:07.155Z,20.88
2018-04-30T23:31:33.134Z,20.79
2018-04-30T23:34:00.124Z,20.88
2018-04-30T23:36:26.142Z,20.95
2018-04-30T23:38:52.215Z,20.79
2018-04-30T23:41:18.498Z,20.78
2018-04-30T23:43:44.477Z,20.81
2018-04-30T23:46:11.090Z,20.97
2018-04-30T23:48:37.275Z,20.78
2018-04-30T23:51:03.438Z,20.79
2018-04-30T23:53:29.447Z,20.85
2018-04-30T23:55:55.428Z,20.95
2018-04-30T23:58:21.476Z,20.85
